• Join FlightAware (Why Join?)
  • Login
  • US Flag GB Flag 
21:57 EDT


 

Airport Tracker/Info


-or-


 

Live Flight TrackerFlight Track Log ✈ DAL6034 ✈ 26-Apr-2013 ✈ KLGA - KMHT

Flight Track Log - Related Links

Times and Time Zones

All times are in EDT time to prevent confusion due to time zone crossing. See the DAL6034 flight status page for this flight to view local times or setup timezone preferences in your user account.

Time Position Orientation Groundspeed Altitude Reporting Facility
EDT Latitude Longitude Course Direction KTS MPH feet Rate Location/Type
16:06 40.8000 -73.8500 27° Northeast 164 189 1,400  Level New York TRACON
16:07 40.8500 -73.8167 27° Northeast 227 261 3,500 2,400 Climbing New York TRACON
16:08 40.9167 -73.7667 30° Northeast 247 284 6,500 2,580 Climbing New York TRACON
16:09 41.1159 -73.5958 28° Northeast  Level FlightAware Approximate
16:09 40.9667 -73.7167 37° Northeast 253 291 8,800  Level New York TRACON
16:10 41.2016 -73.5236 33° Northeast  Level FlightAware Approximate
16:11 41.2879 -73.4526 27° Northeast  Level FlightAware Approximate
16:11 41.0811 -73.6353 28° Northeast 304 350 11,800  Level Boston Center
16:12 41.1567 -73.5731 32° Northeast 305 351 13,500 1,500 Climbing Boston Center
16:13 41.2386 -73.5111 30° Northeast 322 371 14,900 1,500 Climbing Boston Center
16:14 41.3228 -73.4406 32° Northeast 341 392 16,500 1,500 Climbing Boston Center
16:15 41.4086 -73.3728 31° Northeast 353 406 17,900 900 Climbing Boston Center
16:16 41.5072 -73.2856 34° Northeast 371 427 18,500 1,080 Climbing Boston Center
16:17 41.5811 -73.1811 47° Northeast 377 434 20,400 1,200 Climbing Boston Center
16:18 41.6753 -73.1211 25° Northeast 382 440 21,000 300 Climbing Boston Center
16:19 41.7792 -73.1333 355° North 349 402 21,000  Level Boston Center
16:20 41.8833 -73.1511 353° North 355 409 21,000  Level Boston Center
16:21 41.9894 -73.1692 353° North 368 423 21,000  Level Boston Center
16:22 42.0917 -73.1897 352° North 373 429 21,000  Level Boston Center
16:23 42.1997 -73.2081 353° North 378 435 21,000  Level Boston Center
16:24 42.3039 -73.2261 353° North 378 435 21,000  Level Boston Center
16:25 42.4183 -73.2389 355° North 378 435 21,000 -360 Level Boston Center
16:26 42.5186 -73.2147 10° North 373 429 20,300 -900 Descending Boston Center
16:27 42.5736 -73.0717 62° Northeast 343 395 19,200 -660 Descending Boston Center
16:28 42.6139 -72.9308 69° East 361 415 19,000 -600 Descending Boston Center
16:29 42.6542 -72.7872 69° East 381 438 18,100 -1,020 Descending Boston Center
16:30 42.6942 -72.6464 69° East 394 453 17,000 -1,200 Descending Boston Center
16:31 42.7256 -72.5389 68° East 394 453 15,800 -1,380 Descending Boston Center
16:32 42.7672 -72.3947 68° East 377 434 14,300 -1,620 Descending Boston Center
16:33 42.7961 -72.2533 74° East 365 420 12,600 -1,860 Descending Boston Center
16:34 42.8064 -72.1203 84° East 354 407 10,600 -1,320 Descending Boston Center
16:35 42.8164 -72.0014 83° East 333 383 10,000 -1,080 Descending Boston Center
16:36 42.8264 -71.8881 83° East 298 343 8,500 -1,620 Descending Boston Center
16:37 42.8739 -71.8139 49° Northeast 255 293 6,800 -1,860 Descending Boston Center
16:38 42.9256 -71.7453 44° Northeast 250 288 4,800 -1,500 Descending Boston Center
16:39 42.9711 -71.6797 46° Northeast 244 281 3,900 -900 Descending Boston Center
16:40 42.9975 -71.6056 64° Northeast 223 257 3,000 -840 Descending Boston Center
16:41 43.0094 -71.5344 77° East 196 226 2,300 -720 Descending Boston Center